createdAt,value
2022-09-03T00:01:33.512Z,1007.81
2022-09-03T00:04:41.737Z,1007.78
2022-09-03T00:07:49.508Z,1007.72
2022-09-03T00:10:58.414Z,1007.76
2022-09-03T00:14:06.779Z,1007.79
2022-09-03T00:17:14.240Z,1007.77
2022-09-03T00:20:22.600Z,1007.73
2022-09-03T00:23:24.822Z,1007.71
2022-09-03T00:26:32.232Z,1007.70
2022-09-03T00:29:40.482Z,1007.73
2022-09-03T00:32:48.285Z,1007.72
2022-09-03T00:35:55.962Z,1007.71
2022-09-03T00:39:03.935Z,1007.66
2022-09-03T00:42:11.233Z,1007.69
2022-09-03T00:45:19.368Z,1007.63
2022-09-03T00:48:27.971Z,1007.62
2022-09-03T00:51:35.755Z,1007.58
2022-09-03T00:54:43.720Z,1007.56
2022-09-03T00:57:51.882Z,1007.57
2022-09-03T01:00:59.209Z,1007.51
2022-09-03T01:04:07.273Z,1007.56
2022-09-03T01:07:14.656Z,1007.55
2022-09-03T01:10:22.695Z,1007.60
2022-09-03T01:13:30.616Z,1007.60
2022-09-03T01:16:37.956Z,1007.62
2022-09-03T01:19:45.958Z,1007.67
2022-09-03T01:22:53.736Z,1007.62
2022-09-03T01:26:01.475Z,1007.68
2022-09-03T01:29:09.732Z,1007.66
2022-09-03T01:32:17.541Z,1007.62
2022-09-03T01:35:25.431Z,1007.70
2022-09-03T01:38:35.561Z,1007.64
2022-09-03T01:41:43.673Z,1007.71
2022-09-03T01:44:51.380Z,1007.73
2022-09-03T01:48:00.793Z,1007.73
2022-09-03T01:51:09.035Z,1007.81
2022-09-03T01:54:17.975Z,1007.77
2022-09-03T01:57:34.728Z,1007.79
2022-09-03T02:00:24.017Z,1007.77
2022-09-03T02:03:31.329Z,1007.76
2022-09-03T02:06:39.350Z,1007.74
2022-09-03T02:09:47.170Z,1007.71
2022-09-03T02:12:54.838Z,1007.78
2022-09-03T02:16:02.787Z,1007.78
2022-09-03T02:19:10.617Z,1007.74
2022-09-03T02:22:18.453Z,1007.73
2022-09-03T02:25:26.514Z,1007.74
2022-09-03T02:28:34.083Z,1007.77
2022-09-03T02:31:41.853Z,1007.72
2022-09-03T02:34:49.478Z,1007.70
2022-09-03T02:37:57.209Z,1007.66
2022-09-03T02:41:04.937Z,1007.73
2022-09-03T02:44:12.598Z,1007.67
2022-09-03T02:47:20.652Z,1007.67
2022-09-03T02:50:28.080Z,1007.71
2022-09-03T02:53:35.891Z,1007.73
2022-09-03T02:56:43.882Z,1007.79
2022-09-03T02:59:51.125Z,1007.83
2022-09-03T03:02:59.323Z,1007.77
2022-09-03T03:06:07.364Z,1007.77
2022-09-03T03:09:14.626Z,1007.80
2022-09-03T03:12:22.656Z,1007.71
2022-09-03T03:15:30.278Z,1007.74
2022-09-03T03:18:38.116Z,1007.71
2022-09-03T03:21:46.125Z,1007.69
2022-09-03T03:24:53.482Z,1007.70
2022-09-03T03:28:01.430Z,1007.59
2022-09-03T03:31:09.598Z,1007.65
2022-09-03T03:34:17.001Z,1007.69
2022-09-03T03:37:25.262Z,1007.69
2022-09-03T03:40:32.870Z,1007.68
2022-09-03T03:43:40.143Z,1007.71
2022-09-03T03:46:47.955Z,1007.66
2022-09-03T03:49:55.632Z,1007.70
2022-09-03T03:53:03.275Z,1007.75
2022-09-03T03:56:10.696Z,1007.74
2022-09-03T03:59:18.454Z,1007.67
2022-09-03T04:02:26.275Z,1007.76
2022-09-03T04:05:34.478Z,1007.67
2022-09-03T04:08:42.071Z,1007.63
2022-09-03T04:11:49.610Z,1007.64
2022-09-03T04:14:57.233Z,1007.63
2022-09-03T04:18:04.923Z,1007.62
2022-09-03T04:21:12.604Z,1007.54
2022-09-03T04:24:20.164Z,1007.54
2022-09-03T04:27:28.115Z,1007.52
2022-09-03T04:30:35.929Z,1007.46
2022-09-03T04:33:43.844Z,1007.50
2022-09-03T04:36:53.061Z,1007.47
2022-09-03T04:40:00.904Z,1007.51
2022-09-03T04:43:10.114Z,1007.52
2022-09-03T04:46:18.605Z,1007.53
2022-09-03T04:49:26.478Z,1007.53
2022-09-03T04:52:34.469Z,1007.54
2022-09-03T04:55:43.020Z,1007.50
2022-09-03T04:58:51.233Z,1007.59
2022-09-03T05:01:59.494Z,1007.58
2022-09-03T05:05:07.982Z,1007.55
2022-09-03T05:08:15.423Z,1007.56
2022-09-03T05:11:23.635Z,1007.60
2022-09-03T05:14:31.325Z,1007.51
2022-09-03T05:17:39.095Z,1007.60
2022-09-03T05:20:47.446Z,1007.63
2022-09-03T05:23:54.859Z,1007.51
2022-09-03T05:27:02.677Z,1007.48
2022-09-03T05:30:10.759Z,1007.45
2022-09-03T05:33:18.520Z,1007.47
2022-09-03T05:36:26.140Z,1007.47
2022-09-03T05:39:34.870Z,1007.51
2022-09-03T05:42:42.551Z,1007.51
2022-09-03T05:45:50.805Z,1007.53
2022-09-03T05:48:58.323Z,1007.56
2022-09-03T05:52:06.104Z,1007.57
2022-09-03T05:55:14.084Z,1007.55
2022-09-03T05:58:23.285Z,1007.56
2022-09-03T06:01:31.098Z,1007.63
2022-09-03T06:04:39.200Z,1007.60
2022-09-03T06:07:47.088Z,1007.60
2022-09-03T06:10:55.257Z,1007.50
2022-09-03T06:14:03.562Z,1007.57
2022-09-03T06:17:10.971Z,1007.57
2022-09-03T06:20:18.702Z,1007.56
2022-09-03T06:23:26.389Z,1007.56
2022-09-03T06:26:33.713Z,1007.63
2022-09-03T06:29:42.454Z,1007.59
2022-09-03T06:32:50.366Z,1007.61
2022-09-03T06:35:58.118Z,1007.57
2022-09-03T06:39:05.856Z,1007.55
2022-09-03T06:42:13.988Z,1007.61
2022-09-03T06:45:21.678Z,1007.61
2022-09-03T06:48:29.416Z,1007.60
2022-09-03T06:51:37.554Z,1007.65
2022-09-03T06:54:45.233Z,1007.71
2022-09-03T06:57:52.970Z,1007.69
2022-09-03T07:01:01.495Z,1007.65
2022-09-03T07:04:09.408Z,1007.63
2022-09-03T07:07:17.194Z,1007.62
2022-09-03T07:10:25.576Z,1007.57
2022-09-03T07:13:32.919Z,1007.66
2022-09-03T07:16:40.597Z,1007.71
2022-09-03T07:19:49.749Z,1007.63
2022-09-03T07:22:56.989Z,1007.54
2022-09-03T07:26:04.700Z,1007.66
2022-09-03T07:29:12.582Z,1007.61
2022-09-03T07:32:20.002Z,1007.68
2022-09-03T07:35:27.693Z,1007.66
2022-09-03T07:38:35.364Z,1007.66
2022-09-03T07:41:43.415Z,1007.62
2022-09-03T07:44:51.635Z,1007.49
2022-09-03T07:47:59.068Z,1007.52
2022-09-03T07:51:07.379Z,1007.50
2022-09-03T07:54:15.558Z,1007.51
2022-09-03T07:57:22.939Z,1007.49
2022-09-03T08:00:30.635Z,1007.39
2022-09-03T08:03:38.293Z,1007.63
2022-09-03T08:06:46.017Z,1007.58
2022-09-03T08:09:54.303Z,1007.63
2022-09-03T08:13:02.074Z,1007.61
2022-09-03T08:16:09.887Z,1007.61
2022-09-03T08:19:18.186Z,1007.59
2022-09-03T08:22:26.027Z,1007.58
2022-09-03T08:25:34.198Z,1007.65
2022-09-03T08:28:41.989Z,1007.61
2022-09-03T08:31:50.254Z,1007.50
2022-09-03T08:34:58.052Z,1007.55
2022-09-03T08:38:05.752Z,1007.52
2022-09-03T08:41:06.353Z,1007.60
2022-09-03T08:44:14.234Z,1007.57
2022-09-03T08:47:22.026Z,1007.53
2022-09-03T08:50:29.806Z,1007.57
2022-09-03T08:53:37.263Z,1007.59
2022-09-03T08:56:45.418Z,1007.61
2022-09-03T08:59:53.129Z,1007.54
2022-09-03T09:03:01.103Z,1007.56
2022-09-03T09:06:10.211Z,1007.56
2022-09-03T09:09:17.985Z,1007.54
2022-09-03T09:12:26.643Z,1007.50
2022-09-03T09:15:37.396Z,1007.49
2022-09-03T09:18:45.146Z,1007.55
2022-09-03T09:21:53.499Z,1007.36
2022-09-03T09:25:01.889Z,1007.37
2022-09-03T09:28:09.280Z,1007.40
2022-09-03T09:31:17.779Z,1007.41
2022-09-03T09:34:25.732Z,1007.34
2022-09-03T09:37:33.464Z,1007.45
2022-09-03T09:40:44.774Z,1007.27
2022-09-03T09:43:42.252Z,1007.32
2022-09-03T09:46:54.174Z,1007.36
2022-09-03T09:49:51.896Z,1007.24
2022-09-03T09:52:59.607Z,1007.32
2022-09-03T09:56:07.857Z,1007.30
2022-09-03T09:59:15.251Z,1007.29
2022-09-03T10:02:23.100Z,1007.14
2022-09-03T10:05:30.782Z,1007.15
2022-09-03T10:08:39.034Z,1007.26
2022-09-03T10:11:46.931Z,1007.18
2022-09-03T10:14:54.832Z,1007.18
2022-09-03T10:18:02.976Z,1007.10
2022-09-03T10:21:10.262Z,1007.16
2022-09-03T10:24:18.289Z,1007.16
2022-09-03T10:27:26.410Z,1007.12
2022-09-03T10:30:34.103Z,1007.10
2022-09-03T10:33:42.204Z,1007.05
2022-09-03T10:36:50.223Z,1006.97
2022-09-03T10:39:57.921Z,1006.95
2022-09-03T10:43:05.626Z,1006.97
2022-09-03T10:46:13.285Z,1006.95
2022-09-03T10:49:21.089Z,1006.94
2022-09-03T10:52:29.079Z,1006.91
2022-09-03T10:55:36.450Z,1006.84
2022-09-03T10:58:44.323Z,1006.88
2022-09-03T11:01:52.072Z,1006.93
2022-09-03T11:05:01.223Z,1006.80
2022-09-03T11:08:08.978Z,1006.83
2022-09-03T11:11:19.502Z,1006.76
2022-09-03T11:14:21.171Z,1006.77
2022-09-03T11:17:32.159Z,1006.74
2022-09-03T11:20:37.207Z,1006.73
2022-09-03T11:23:43.945Z,1006.65
2022-09-03T11:26:52.072Z,1006.65
2022-09-03T11:29:56.079Z,1006.72
2022-09-03T11:33:00.775Z,1006.59
2022-09-03T11:36:05.964Z,1006.61
2022-09-03T11:39:11.042Z,1006.66
2022-09-03T11:42:18.343Z,1006.61
2022-09-03T11:45:26.118Z,1006.50
2022-09-03T11:48:33.804Z,1006.59
2022-09-03T11:51:41.235Z,1006.51
2022-09-03T11:54:49.618Z,1006.60
2022-09-03T11:57:57.259Z,1006.58
2022-09-03T12:01:05.079Z,1006.43
2022-09-03T12:04:12.962Z,1006.48
2022-09-03T12:07:21.242Z,1006.43
2022-09-03T12:10:29.053Z,1006.49
2022-09-03T12:13:36.647Z,1006.40
2022-09-03T12:16:44.902Z,1006.38
2022-09-03T12:19:45.288Z,1006.45
2022-09-03T12:26:02.350Z,1006.40
2022-09-03T12:29:12.302Z,1006.28
2022-09-03T12:32:20.043Z,1006.22
2022-09-03T12:38:26.577Z,1006.10
2022-09-03T12:41:34.323Z,1006.22
2022-09-03T12:44:41.728Z,1006.13
2022-09-03T12:47:49.089Z,1006.21
2022-09-03T12:50:56.942Z,1006.11
2022-09-03T12:54:04.746Z,1006.00
2022-09-03T12:57:12.863Z,1006.04
2022-09-03T13:00:20.753Z,1006.04
2022-09-03T13:03:28.455Z,1006.09
2022-09-03T13:06:36.356Z,1005.96
2022-09-03T13:09:44.427Z,1005.93
2022-09-03T13:12:53.555Z,1005.83
2022-09-03T13:16:01.341Z,1005.84
2022-09-03T13:19:09.642Z,1005.84
2022-09-03T13:22:16.962Z,1005.83
2022-09-03T13:25:24.728Z,1005.83
2022-09-03T13:28:32.949Z,1005.75
2022-09-03T13:31:40.295Z,1005.86
2022-09-03T13:34:48.599Z,1005.79
2022-09-03T13:37:56.174Z,1005.76
2022-09-03T13:41:03.740Z,1005.83
2022-09-03T13:44:11.705Z,1005.85
2022-09-03T13:47:18.993Z,1005.78
2022-09-03T13:50:27.143Z,1005.72
2022-09-03T13:53:34.975Z,1005.73
2022-09-03T13:56:42.815Z,1005.62
2022-09-03T13:59:51.038Z,1005.81
2022-09-03T14:02:58.721Z,1005.73
2022-09-03T14:06:06.522Z,1005.70
2022-09-03T14:09:13.922Z,1005.73
2022-09-03T14:12:22.254Z,1005.76
2022-09-03T14:15:30.004Z,1005.72
2022-09-03T14:18:37.795Z,1005.72
2022-09-03T14:21:45.928Z,1005.73
2022-09-03T14:24:53.366Z,1005.68
2022-09-03T14:28:01.259Z,1005.67
2022-09-03T14:31:09.550Z,1005.71
2022-09-03T14:34:16.923Z,1005.69
2022-09-03T14:37:25.244Z,1005.63
2022-09-03T14:40:33.046Z,1005.64
2022-09-03T14:43:40.690Z,1005.60
2022-09-03T14:46:48.818Z,1005.63
2022-09-03T14:49:56.627Z,1005.60
2022-09-03T14:53:04.391Z,1005.52
2022-09-03T14:56:11.803Z,1005.63
2022-09-03T14:59:19.661Z,1005.64
2022-09-03T15:02:27.534Z,1005.67
2022-09-03T15:05:35.226Z,1005.70
2022-09-03T15:08:43.457Z,1005.66
2022-09-03T15:11:50.842Z,1005.71
2022-09-03T15:14:59.157Z,1005.71
2022-09-03T15:18:07.320Z,1005.62
2022-09-03T15:21:14.689Z,1005.71
2022-09-03T15:24:22.743Z,1005.71
2022-09-03T15:27:30.094Z,1005.65
2022-09-03T15:30:38.186Z,1005.64
2022-09-03T15:33:46.124Z,1005.72
2022-09-03T15:36:53.574Z,1005.71
2022-09-03T15:40:01.996Z,1005.73
2022-09-03T15:43:09.698Z,1005.73
2022-09-03T15:46:17.569Z,1005.74
2022-09-03T15:49:25.743Z,1005.71
2022-09-03T15:52:33.514Z,1005.71
2022-09-03T15:55:41.416Z,1005.62
2022-09-03T15:58:48.846Z,1005.59
2022-09-03T16:01:56.937Z,1005.72
2022-09-03T16:05:05.079Z,1005.72
2022-09-03T16:08:13.051Z,1005.69
2022-09-03T16:11:21.101Z,1005.65
2022-09-03T16:14:28.879Z,1005.61
2022-09-03T16:17:36.329Z,1005.56
2022-09-03T16:20:44.665Z,1005.52
2022-09-03T16:23:52.095Z,1005.51
2022-09-03T16:27:00.709Z,1005.62
2022-09-03T16:30:09.225Z,1005.63
2022-09-03T16:33:16.813Z,1005.62
2022-09-03T16:36:25.302Z,1005.59
2022-09-03T16:39:33.985Z,1005.67
2022-09-03T16:42:41.344Z,1005.59
2022-09-03T16:45:49.657Z,1005.63
2022-09-03T16:48:57.104Z,1005.74
2022-09-03T16:52:05.140Z,1005.66
2022-09-03T16:55:13.697Z,1005.71
2022-09-03T16:58:21.308Z,1005.70
2022-09-03T17:01:29.638Z,1005.63
2022-09-03T17:04:37.552Z,1005.72
2022-09-03T17:07:45.544Z,1005.73
2022-09-03T17:10:53.966Z,1005.71
2022-09-03T17:14:01.521Z,1005.84
2022-09-03T17:17:09.757Z,1005.81
2022-09-03T17:20:17.697Z,1005.79
2022-09-03T17:23:26.176Z,1005.81
2022-09-03T17:26:34.202Z,1005.78
2022-09-03T17:29:42.901Z,1005.74
2022-09-03T17:32:50.824Z,1005.78
2022-09-03T17:35:50.795Z,1005.87
2022-09-03T17:38:58.856Z,1005.89
2022-09-03T17:42:06.610Z,1005.92
2022-09-03T17:45:14.997Z,1005.98
2022-09-03T17:48:22.487Z,1006.01
2022-09-03T17:51:30.917Z,1006.01
2022-09-03T17:54:38.985Z,1006.05
2022-09-03T17:57:46.897Z,1006.10
2022-09-03T18:00:55.412Z,1006.18
2022-09-03T18:04:05.312Z,1006.22
2022-09-03T18:07:13.826Z,1006.17
2022-09-03T18:10:22.367Z,1006.24
2022-09-03T18:13:29.927Z,1006.22
2022-09-03T18:16:38.503Z,1006.31
2022-09-03T18:19:46.622Z,1006.32
2022-09-03T18:22:54.481Z,1006.40
2022-09-03T18:26:02.893Z,1006.42
2022-09-03T18:29:10.673Z,1006.41
2022-09-03T18:32:19.183Z,1006.52
2022-09-03T18:35:27.318Z,1006.49
2022-09-03T18:38:35.426Z,1006.53
2022-09-03T18:41:43.466Z,1006.52
2022-09-03T18:45:06.360Z,1006.55
2022-09-03T18:48:09.054Z,1006.57
2022-09-03T18:51:02.999Z,1006.62
2022-09-03T18:54:11.051Z,1006.64
2022-09-03T18:57:18.715Z,1006.66
2022-09-03T19:00:29.149Z,1006.68
2022-09-03T19:03:36.923Z,1006.70
2022-09-03T19:06:45.346Z,1006.67
2022-09-03T19:09:54.007Z,1006.69
2022-09-03T19:13:02.744Z,1006.68
2022-09-03T19:16:10.918Z,1006.70
2022-09-03T19:19:19.120Z,1006.75
2022-09-03T19:22:27.641Z,1006.77
2022-09-03T19:25:36.954Z,1006.76
2022-09-03T19:28:45.623Z,1006.74
2022-09-03T19:31:53.854Z,1006.74
2022-09-03T19:35:02.270Z,1006.84
2022-09-03T19:38:10.486Z,1006.84
2022-09-03T19:41:18.557Z,1006.79
2022-09-03T19:44:26.377Z,1006.84
2022-09-03T19:47:34.109Z,1006.88
2022-09-03T19:50:42.510Z,1006.94
2022-09-03T19:53:50.481Z,1006.92
2022-09-03T19:56:58.064Z,1006.92
2022-09-03T20:00:06.056Z,1006.98
2022-09-03T20:03:14.741Z,1006.95
2022-09-03T20:06:23.496Z,1006.97
2022-09-03T20:09:31.610Z,1007.10
2022-09-03T20:12:39.442Z,1007.21
2022-09-03T20:15:47.618Z,1007.10
2022-09-03T20:18:55.651Z,1007.15
2022-09-03T20:22:03.945Z,1007.22
2022-09-03T20:25:13.102Z,1007.28
2022-09-03T20:28:21.133Z,1007.28
2022-09-03T20:31:29.372Z,1007.36
2022-09-03T20:34:37.355Z,1007.31
2022-09-03T20:37:45.536Z,1007.37
2022-09-03T20:40:53.439Z,1007.36
2022-09-03T20:44:00.959Z,1007.39
2022-09-03T20:47:09.400Z,1007.40
2022-09-03T20:50:16.961Z,1007.42
2022-09-03T20:53:24.902Z,1007.39
2022-09-03T20:56:33.009Z,1007.39
2022-09-03T20:59:40.423Z,1007.43
2022-09-03T21:02:48.789Z,1007.51
2022-09-03T21:05:56.783Z,1007.56
2022-09-03T21:09:04.686Z,1007.62
2022-09-03T21:12:12.917Z,1007.57
2022-09-03T21:15:20.736Z,1007.60
2022-09-03T21:18:28.681Z,1007.59
2022-09-03T21:21:37.657Z,1007.59
2022-09-03T21:24:45.504Z,1007.61
2022-09-03T21:27:53.321Z,1007.61
2022-09-03T21:31:01.224Z,1007.57
2022-09-03T21:34:09.654Z,1007.52
2022-09-03T21:37:17.159Z,1007.53
2022-09-03T21:40:25.210Z,1007.57
2022-09-03T21:43:33.104Z,1007.62
2022-09-03T21:46:40.570Z,1007.63
2022-09-03T21:49:48.510Z,1007.68
2022-09-03T21:52:55.957Z,1007.67
2022-09-03T21:56:04.312Z,1007.65
2022-09-03T21:59:12.410Z,1007.69
2022-09-03T22:02:20.026Z,1007.78
2022-09-03T22:05:28.203Z,1007.79
2022-09-03T22:08:36.237Z,1007.80
2022-09-03T22:11:44.145Z,1007.83
2022-09-03T22:14:51.986Z,1007.84
2022-09-03T22:17:59.786Z,1007.79
2022-09-03T22:21:07.588Z,1007.80
2022-09-03T22:24:15.689Z,1007.80
2022-09-03T22:27:23.849Z,1007.82
2022-09-03T22:30:31.650Z,1007.75
2022-09-03T22:33:39.538Z,1007.79
2022-09-03T22:36:47.721Z,1007.94
2022-09-03T22:39:55.824Z,1007.88
2022-09-03T22:43:03.830Z,1007.86
2022-09-03T22:46:11.783Z,1007.81
2022-09-03T22:49:19.126Z,1007.78
2022-09-03T22:52:27.099Z,1007.80
2022-09-03T22:55:34.897Z,1007.79
2022-09-03T22:58:42.347Z,1007.87
2022-09-03T23:01:50.669Z,1007.92
2022-09-03T23:04:58.159Z,1007.83
2022-09-03T23:08:06.432Z,1007.80
2022-09-03T23:11:14.570Z,1007.84
2022-09-03T23:14:22.125Z,1007.86
2022-09-03T23:18:02.977Z,1008.04
2022-09-03T23:21:11.232Z,1008.02
2022-09-03T23:24:19.028Z,1008.05
2022-09-03T23:27:28.280Z,1008.08
2022-09-03T23:30:36.166Z,1008.03
2022-09-03T23:33:43.941Z,1008.05
2022-09-03T23:37:10.312Z,1008.09
2022-09-03T23:39:56.356Z,1008.12
2022-09-03T23:43:03.884Z,1008.13
2022-09-03T23:46:12.385Z,1008.11
2022-09-03T23:49:20.345Z,1008.11
2022-09-03T23:52:28.257Z,1008.05
2022-09-03T23:55:36.547Z,1008.13
2022-09-03T23:58:45.077Z,1008.11
